Observations for Trim Patrick St
| Time | AQI | Temp °C | Hum % | Pres Pa | CO μg/m³ | H₂S μg/m³ | NO μg/m³ | NO₂ μg/m³ | O₃ μg/m³ | SO₂ μg/m³ | PM1 μg/m³ | PM2.5 μg/m³ | PM10 μg/m³ |
|---|---|---|---|---|---|---|---|---|---|---|---|---|---|
| Saturday 1 August 2026 | |||||||||||||
| 17:41 | 3 | 27.6 | 34 | 68,999 | 0 | 4.41 | 1.14 | 21.9 | 90.56 | 11.67 | 3.71 | 9.83 | 10.81 |
| 17:40 | 3 | 27.6 | 34 | 69,029 | 0 | 3 | 1.15 | 20.51 | 80.02 | 11.16 | 5.43 | 13 | 14.3 |
| 17:39 | 3 | 27.6 | 34 | 69,039 | 0 | 7.53 | 1.21 | 23.69 | 88.37 | 11.92 | 6.29 | 12.98 | 14.28 |
| 17:38 | 3 | 27.6 | 35 | 69,049 | 0 | 9.24 | 1.22 | 25.45 | 90.83 | 12.13 | 5.43 | 12.15 | 13.37 |
| 17:37 | 3 | 27.5 | 35 | 69,063 | 0 | 7.62 | 1.26 | 20.36 | 92.83 | 12.19 | 7.14 | 14.53 | 15.98 |
| 17:34 | 3 | 27.2 | 35 | 69,061 | 0 | 7.67 | 1.08 | 19.12 | 100.9 | 12.63 | 6.29 | 13.75 | 15.13 |
| 17:33 | 3 | 27.1 | 34 | 69,023 | 0 | 5.09 | 1.15 | 17.17 | 90.13 | 11.93 | 6.29 | 14.56 | 16.02 |
| 17:30 | 3 | 27.1 | 35 | 69,047 | 0 | 5.01 | 1.09 | 15.79 | 85.8 | 11.64 | 3.71 | 9.74 | 10.71 |
| 17:29 | 3 | 27 | 35 | 69,039 | 0 | 7.07 | 1.06 | 14.95 | 100.42 | 12.87 | 4.57 | 11.31 | 12.44 |
| 17:28 | 3 | 27 | 35 | 69,057 | 0 | 7.09 | 1.02 | 14.43 | 97.01 | 12.54 | 2 | 7.33 | 8.07 |
| 17:27 | 3 | 27 | 34 | 69,082 | 0 | 7.2 | 1.03 | 14.95 | 89.89 | 12.54 | 5.43 | 12.98 | 14.28 |
| 17:26 | 3 | 27.1 | 34 | 69,082 | 0 | 6.77 | 1.01 | 16.37 | 92.48 | 12.43 | 5.43 | 12.18 | 13.4 |
| 17:25 | 3 | 27.2 | 34 | 69,084 | 0 | 2.71 | 1.02 | 15.88 | 89.2 | 12.19 | 5.43 | 12.2 | 13.42 |
| 17:24 | 3 | 27.4 | 34 | 69,082 | 0 | 1.92 | 1.12 | 14.31 | 81.85 | 12.63 | 6.29 | 13.83 | 15.21 |
| 17:23 | 3 | 27.5 | 34 | 69,080 | 0 | 5.86 | 1.17 | 17.07 | 95.99 | 12.55 | 8 | 15.44 | 16.98 |
| 17:22 | 3 | 27.6 | 33 | 69,080 | 0 | 6.44 | 1.23 | 17.98 | 97.91 | 12.9 | 7.14 | 15.47 | 17.02 |
| 17:21 | 3 | 27.8 | 33 | 69,076 | 0 | 0 | 1.32 | 14.91 | 85.64 | 12.56 | 7.14 | 13.9 | 15.29 |
| 17:20 | 3 | 27.9 | 33 | 69,100 | 0 | 0 | 1.3 | 15.27 | 93.48 | 12.6 | 7.14 | 13.87 | 15.26 |
| 17:19 | 3 | 28.1 | 32 | 69,134 | 0 | 0 | 1.31 | 13.36 | 77.33 | 12.46 | 7.14 | 14.75 | 16.23 |
| 17:18 | 3 | 28.2 | 32 | 69,116 | 0 | 0 | 1.29 | 16.68 | 78.34 | 12.15 | 7.14 | 14.74 | 16.22 |